Paramount Hamilton — 2CWB2 — position and weather

sailwx.info

Track history (hours):
 
Tides and Currents Weather Stations Pressure Air Temp Water Temp Dewpoint Dewpoint Depression Visibility Wind Speed Wind Dir Waves Ship Positions

Paramount Hamilton

Last reported at 2014-Sep-01 12:33 UTC. Time now 2014-Sep-02 21:35 UTC.
Position N 29°59' W 090°24'.

Length 250 m; draft 8 m.

Type: Tanker. MMSI: 235076274.

Date/timePositionNaut miles runAvg speedWind from/ knotsBaromVisibWave heightAir tempDewpointWater temp
2014-Sep-01 12:33N 29°59' W 090°24'0 0.0
2014-Sep-01 11:33N 29°59' W 090°24'0 0.0
2014-Sep-01 10:33N 29°59' W 090°24'0 0.0
2014-Sep-01 09:33N 29°59' W 090°24'0 0.0
2014-Sep-01 08:33N 29°59' W 090°24'0 0.0
2014-Aug-31 14:26N 29°59' W 090°24'5 5.2
2014-Aug-31 13:33N 29°56' W 090°20'2 1.2
2014-Aug-31 11:24N 29°58' W 090°17'0 0.0
2014-Aug-31 09:30N 29°58' W 090°17'0 0.0
2014-Aug-31 08:30N 29°58' W 090°17'0 0.0
2014-Aug-31 07:30N 29°58' W 090°17'0 0.0
2014-Aug-31 06:30N 29°58' W 090°17'0 0.0
2014-Aug-31 05:33N 29°58' W 090°17'0 0.0
2014-Aug-31 04:30N 29°58' W 090°17'0 0.0
2014-Aug-31 03:24N 29°58' W 090°17'0 0.0
2014-Aug-31 02:12N 29°58' W 090°17'0 0.0
2014-Aug-31 01:24N 29°58' W 090°17'0 0.0
2014-Aug-31 00:30N 29°58' W 090°17'0 0.0
2014-Aug-30 23:06N 29°58' W 090°17'0 0.0
2014-Aug-30 22:12N 29°58' W 090°17'0 0.0
2014-Aug-30 21:33N 29°58' W 090°17'0 0.0
2014-Aug-30 20:24N 29°58' W 090°17'0 0.0
2014-Aug-30 18:24N 29°58' W 090°17'0 0.0
2014-Aug-30 17:24N 29°58' W 090°17'0 0.0
2014-Aug-30 16:18N 29°58' W 090°17'0 0.0
2014-Aug-30 15:30N 29°58' W 090°17'0 0.0
2014-Aug-30 14:33N 29°58' W 090°18'0 0.0
2014-Aug-30 12:06N 29°58' W 090°17'0 0.0
2014-Aug-30 11:30N 29°58' W 090°17'0 0.0
2014-Aug-30 10:24N 29°58' W 090°17'0 0.0
2014-Aug-30 07:12N 29°58' W 090°17'0 0.0
2014-Aug-30 04:27N 29°58' W 090°17'0 0.0
2014-Aug-30 02:12N 29°58' W 090°17'0 0.0
2014-Aug-30 00:18N 29°58' W 090°17'0 0.0
2014-Aug-29 23:18N 29°58' W 090°17'0 0.0
2014-Aug-29 22:24N 29°58' W 090°17'9 0.7
2014-Aug-29 09:18N 29°55' W 090°08'23 5.8
2014-Aug-29 05:22N 29°36' W 089°52'  
2014-Aug-22 16:31N 30°03' W 090°29'1311.8
2014-Aug-22 15:25N 30°01' W 090°44'  
Track history (hours):
 
Tides and Currents Weather Stations Pressure Air Temp Water Temp Dewpoint Dewpoint Depression Visibility Wind Speed Wind Dir Waves Ship Positions

Paramount Hamilton

Last reported at 2014-Sep-01 12:33 UTC. Time now 2014-Sep-02 21:35 UTC.
Position N 29°59' W 090°24'.

Length 250 m; draft 8 m.

Type: Tanker. MMSI: 235076274.

Date/timePositionNaut miles runAvg speedWind from/ knotsBaromVisibWave heightAir tempDewpointWater temp
2014-Sep-01 12:33N 29°59' W 090°24'0 0.0
2014-Sep-01 11:33N 29°59' W 090°24'0 0.0
2014-Sep-01 10:33N 29°59' W 090°24'0 0.0
2014-Sep-01 09:33N 29°59' W 090°24'0 0.0
2014-Sep-01 08:33N 29°59' W 090°24'0 0.0
2014-Aug-31 14:26N 29°59' W 090°24'5 5.2
2014-Aug-31 13:33N 29°56' W 090°20'2 1.2
2014-Aug-31 11:24N 29°58' W 090°17'0 0.0
2014-Aug-31 09:30N 29°58' W 090°17'0 0.0
2014-Aug-31 08:30N 29°58' W 090°17'0 0.0
2014-Aug-31 07:30N 29°58' W 090°17'0 0.0
2014-Aug-31 06:30N 29°58' W 090°17'0 0.0
2014-Aug-31 05:33N 29°58' W 090°17'0 0.0
2014-Aug-31 04:30N 29°58' W 090°17'0 0.0
2014-Aug-31 03:24N 29°58' W 090°17'0 0.0
2014-Aug-31 02:12N 29°58' W 090°17'0 0.0
2014-Aug-31 01:24N 29°58' W 090°17'0 0.0
2014-Aug-31 00:30N 29°58' W 090°17'0 0.0
2014-Aug-30 23:06N 29°58' W 090°17'0 0.0
2014-Aug-30 22:12N 29°58' W 090°17'0 0.0
2014-Aug-30 21:33N 29°58' W 090°17'0 0.0
2014-Aug-30 20:24N 29°58' W 090°17'0 0.0
2014-Aug-30 18:24N 29°58' W 090°17'0 0.0
2014-Aug-30 17:24N 29°58' W 090°17'0 0.0
2014-Aug-30 16:18N 29°58' W 090°17'0 0.0
2014-Aug-30 15:30N 29°58' W 090°17'0 0.0
2014-Aug-30 14:33N 29°58' W 090°18'0 0.0
2014-Aug-30 12:06N 29°58' W 090°17'0 0.0
2014-Aug-30 11:30N 29°58' W 090°17'0 0.0
2014-Aug-30 10:24N 29°58' W 090°17'0 0.0
2014-Aug-30 07:12N 29°58' W 090°17'0 0.0
2014-Aug-30 04:27N 29°58' W 090°17'0 0.0
2014-Aug-30 02:12N 29°58' W 090°17'0 0.0
2014-Aug-30 00:18N 29°58' W 090°17'0 0.0
2014-Aug-29 23:18N 29°58' W 090°17'0 0.0
2014-Aug-29 22:24N 29°58' W 090°17'9 0.7
2014-Aug-29 09:18N 29°55' W 090°08'23 5.8
2014-Aug-29 05:22N 29°36' W 089°52'  
2014-Aug-22 16:31N 30°03' W 090°29'1311.8
2014-Aug-22 15:25N 30°01' W 090°44'  

Dump ship's entire track history